createdAt,value
2022-07-27T00:01:18.334Z,5.68
2022-07-27T00:12:28.506Z,5.18
2022-07-27T00:15:40.985Z,5.13
2022-07-27T00:22:33.234Z,6.38
2022-07-27T00:25:45.148Z,5.90
2022-07-27T00:28:57.116Z,5.48
2022-07-27T00:32:12.592Z,5.55
2022-07-27T00:35:23.367Z,6.33
2022-07-27T00:38:35.167Z,5.35
2022-07-27T00:41:46.903Z,4.80
2022-07-27T00:44:58.937Z,5.08
2022-07-27T00:48:12.163Z,4.15
2022-07-27T00:51:25.968Z,4.75
2022-07-27T00:54:37.773Z,4.83
2022-07-27T00:57:58.525Z,4.75
2022-07-27T01:01:04.276Z,4.45
2022-07-27T01:04:15.930Z,4.10
2022-07-27T01:07:28.297Z,3.88
2022-07-27T01:10:41.764Z,4.60
2022-07-27T01:13:53.980Z,4.43
2022-07-27T01:17:05.824Z,4.43
2022-07-27T01:20:18.943Z,4.30
2022-07-27T01:23:32.568Z,4.83
2022-07-27T01:26:45.417Z,4.40
2022-07-27T01:29:58.094Z,4.20
2022-07-27T01:33:13.258Z,4.30
2022-07-27T01:36:25.329Z,4.35
2022-07-27T01:39:41.747Z,3.80
2022-07-27T01:42:56.957Z,3.80
2022-07-27T01:46:09.290Z,3.73
2022-07-27T01:49:21.108Z,4.18
2022-07-27T01:52:33.132Z,4.23
2022-07-27T01:55:45.156Z,3.88
2022-07-27T01:58:56.886Z,3.60
2022-07-27T02:02:08.547Z,4.90
2022-07-27T02:05:20.817Z,4.00
2022-07-27T02:08:32.864Z,4.38
2022-07-27T02:11:59.185Z,4.20
2022-07-27T02:15:15.780Z,4.43
2022-07-27T02:18:35.807Z,3.90
2022-07-27T02:21:42.172Z,4.28
2022-07-27T02:24:54.019Z,4.20
2022-07-27T02:28:05.761Z,4.23
2022-07-27T02:31:17.310Z,4.73
2022-07-27T02:34:29.100Z,4.35
2022-07-27T02:37:40.951Z,4.75
2022-07-27T02:40:52.919Z,4.00
2022-07-27T02:44:07.687Z,3.70
2022-07-27T02:47:19.790Z,4.10
2022-07-27T02:50:31.898Z,4.60
2022-07-27T02:53:43.739Z,4.30
2022-07-27T02:56:56.276Z,4.95
2022-07-27T03:00:08.696Z,4.93
2022-07-27T03:03:23.388Z,5.73
2022-07-27T03:06:37.345Z,5.98
2022-07-27T03:09:52.492Z,6.23
2022-07-27T03:13:03.227Z,5.20
2022-07-27T03:16:15.315Z,4.90
2022-07-27T03:19:30.298Z,5.13
2022-07-27T03:22:42.518Z,4.58
2022-07-27T03:25:54.277Z,5.20
2022-07-27T03:29:06.144Z,5.23
2022-07-27T03:32:18.046Z,5.68
2022-07-27T03:35:30.472Z,5.65
2022-07-27T03:38:42.563Z,6.78
2022-07-27T03:41:54.226Z,5.50
2022-07-27T03:45:05.942Z,5.40
2022-07-27T03:48:17.643Z,5.03
2022-07-27T03:51:29.170Z,5.78
2022-07-27T03:54:41.035Z,6.63
2022-07-27T03:57:52.783Z,6.80
2022-07-27T04:01:04.551Z,5.28
2022-07-27T04:04:16.516Z,5.00
2022-07-27T04:07:28.100Z,6.95
2022-07-27T04:10:39.778Z,5.48
2022-07-27T04:13:54.423Z,6.73
2022-07-27T04:17:09.433Z,5.50
2022-07-27T04:20:21.250Z,5.03
2022-07-27T04:23:37.940Z,5.78
2022-07-27T04:26:46.937Z,4.93
2022-07-27T04:29:58.509Z,5.58
2022-07-27T04:33:10.330Z,6.13
2022-07-27T04:36:22.020Z,5.70
2022-07-27T04:39:33.753Z,4.88
2022-07-27T04:42:49.259Z,6.68
2022-07-27T04:45:59.375Z,6.38
2022-07-27T04:49:11.323Z,5.38
2022-07-27T04:52:26.449Z,5.28
2022-07-27T04:55:38.116Z,5.48
2022-07-27T04:58:49.819Z,5.83
2022-07-27T05:02:01.426Z,6.50
2022-07-27T05:05:14.612Z,6.75
2022-07-27T05:08:26.884Z,8.40
2022-07-27T05:11:38.690Z,6.98
2022-07-27T05:14:50.262Z,7.03
2022-07-27T05:18:02.023Z,8.20
2022-07-27T05:21:13.941Z,8.55
2022-07-27T05:24:25.620Z,8.20
2022-07-27T05:27:54.224Z,7.80
2022-07-27T05:30:52.518Z,8.48
2022-07-27T05:34:04.377Z,8.35
2022-07-27T05:37:16.240Z,9.43
2022-07-27T05:40:28.408Z,9.40
2022-07-27T05:43:40.204Z,9.28
2022-07-27T05:46:51.908Z,10.85
2022-07-27T05:50:03.458Z,12.28
2022-07-27T05:53:15.479Z,8.90
2022-07-27T05:56:27.591Z,9.23
2022-07-27T05:59:39.756Z,9.13
2022-07-27T06:02:51.912Z,10.63
2022-07-27T06:06:21.345Z,9.65
2022-07-27T06:09:33.069Z,9.85
2022-07-27T06:12:48.086Z,9.20
2022-07-27T06:16:00.980Z,9.70
2022-07-27T06:19:13.078Z,10.30
2022-07-27T06:22:25.169Z,12.35
2022-07-27T06:25:40.451Z,12.70
2022-07-27T06:28:53.076Z,10.05
2022-07-27T06:32:04.878Z,13.53
2022-07-27T06:35:17.857Z,10.65
2022-07-27T06:38:31.379Z,9.55
2022-07-27T06:41:43.185Z,10.88
2022-07-27T06:44:56.974Z,10.50
2022-07-27T06:48:09.243Z,10.00
2022-07-27T06:51:20.987Z,10.18
2022-07-27T07:01:12.144Z,11.18
2022-07-27T07:04:25.286Z,10.08
2022-07-27T07:07:37.584Z,10.48
2022-07-27T07:10:51.083Z,12.45
2022-07-27T07:14:02.993Z,12.78
2022-07-27T07:17:14.671Z,10.18
2022-07-27T07:20:26.978Z,10.65
2022-07-27T07:23:38.873Z,13.25
2022-07-27T07:26:50.456Z,10.30
2022-07-27T07:30:03.194Z,10.10
2022-07-27T07:33:15.000Z,10.70
2022-07-27T07:36:27.003Z,10.60
2022-07-27T07:39:38.755Z,10.18
2022-07-27T07:43:02.613Z,14.28
2022-07-27T07:46:14.870Z,12.65
2022-07-27T07:49:39.259Z,18.68
2022-07-27T07:52:40.792Z,9.88
2022-07-27T07:55:52.618Z,10.45
2022-07-27T07:59:05.165Z,10.93
2022-07-27T08:02:16.957Z,9.88
2022-07-27T08:05:29.809Z,11.83
2022-07-27T08:08:41.909Z,11.40
2022-07-27T08:11:53.586Z,11.05
2022-07-27T08:15:05.276Z,14.20
2022-07-27T08:18:17.614Z,12.93
2022-07-27T08:21:31.629Z,12.38
2022-07-27T08:24:42.972Z,11.63
2022-07-27T08:27:55.487Z,11.15
2022-07-27T08:31:12.175Z,11.43
2022-07-27T08:34:22.251Z,10.15
2022-07-27T08:37:34.149Z,9.53
2022-07-27T08:40:47.573Z,10.33
2022-07-27T08:44:02.434Z,11.83
2022-07-27T08:47:16.874Z,10.60
2022-07-27T08:50:30.740Z,8.58
2022-07-27T08:53:53.154Z,8.13
2022-07-27T08:56:57.367Z,8.30
2022-07-27T09:00:12.551Z,9.38
2022-07-27T09:03:27.484Z,8.60
2022-07-27T09:06:54.434Z,7.93
2022-07-27T09:13:29.394Z,7.90
2022-07-27T09:17:28.883Z,7.90
2022-07-27T09:20:06.334Z,7.10
2022-07-27T09:23:26.047Z,7.03
2022-07-27T09:26:38.569Z,6.45
2022-07-27T09:29:50.341Z,6.93
2022-07-27T09:33:06.872Z,6.10
2022-07-27T09:36:19.764Z,6.90
2022-07-27T09:39:33.185Z,11.35
2022-07-27T09:45:59.056Z,13.45
2022-07-27T09:49:12.311Z,9.65
2022-07-27T09:52:33.472Z,8.40
2022-07-27T09:55:45.881Z,9.48
2022-07-27T09:59:00.045Z,8.85
2022-07-27T10:02:13.204Z,8.43
2022-07-27T10:05:26.067Z,8.48
2022-07-27T10:08:39.015Z,8.78
2022-07-27T10:11:51.781Z,8.50
2022-07-27T10:15:03.488Z,7.85
2022-07-27T10:18:20.164Z,10.55
2022-07-27T10:21:32.799Z,6.55
2022-07-27T10:24:51.224Z,7.85
2022-07-27T10:28:18.958Z,7.70
2022-07-27T10:31:33.947Z,6.80
2022-07-27T10:34:48.168Z,7.03
2022-07-27T10:38:21.760Z,7.05
2022-07-27T11:20:41.856Z,5.30
2022-07-27T11:32:50.806Z,6.48
2022-07-27T11:36:08.034Z,5.20
2022-07-27T11:42:48.917Z,5.73
2022-07-27T11:46:00.748Z,4.70
2022-07-27T11:49:16.218Z,4.70
2022-07-27T11:52:27.915Z,6.00
2022-07-27T11:55:39.744Z,6.88
2022-07-27T11:59:17.596Z,5.20
2022-07-27T12:02:29.754Z,4.90
2022-07-27T12:05:41.633Z,5.68
2022-07-27T12:08:53.496Z,4.85
2022-07-27T12:12:10.080Z,4.10
2022-07-27T12:18:49.898Z,5.55
2022-07-27T12:22:02.495Z,4.10
2022-07-27T12:25:29.963Z,5.18
2022-07-27T12:28:42.450Z,6.05
2022-07-27T12:31:58.697Z,8.08
2022-07-27T12:35:32.813Z,4.23
2022-07-27T12:38:48.742Z,4.28
2022-07-27T12:42:12.761Z,6.65
2022-07-27T12:45:27.751Z,4.88
2022-07-27T12:48:45.767Z,6.03
2022-07-27T12:51:57.960Z,5.23
2022-07-27T12:55:15.532Z,4.70
2022-07-27T12:58:26.017Z,6.10
2022-07-27T13:01:38.226Z,5.88
2022-07-27T13:04:51.373Z,6.48
2022-07-27T13:08:04.992Z,5.28
2022-07-27T13:11:17.163Z,8.50
2022-07-27T13:14:29.378Z,4.90
2022-07-27T13:17:42.224Z,5.45
2022-07-27T13:20:54.077Z,8.70
2022-07-27T13:24:07.158Z,8.00
2022-07-27T13:27:18.961Z,5.65
2022-07-27T13:30:30.823Z,6.20
2022-07-27T13:33:42.659Z,5.60
2022-07-27T13:36:54.492Z,5.00
2022-07-27T13:40:06.706Z,5.15
2022-07-27T13:43:19.574Z,5.95
2022-07-27T13:46:31.832Z,4.70
2022-07-27T13:49:43.839Z,4.53
2022-07-27T13:52:56.144Z,4.25
2022-07-27T13:56:08.061Z,5.63
2022-07-27T13:59:20.254Z,5.03
2022-07-27T14:02:32.330Z,4.85
2022-07-27T14:05:49.202Z,5.65
2022-07-27T14:08:58.464Z,17.83
2022-07-27T14:12:13.773Z,12.05
2022-07-27T14:15:25.837Z,11.30
2022-07-27T14:18:38.191Z,9.55
2022-07-27T14:21:50.096Z,6.93
2022-07-27T14:25:01.752Z,5.83
2022-07-27T14:28:13.735Z,9.53
2022-07-27T14:31:25.523Z,5.05
2022-07-27T14:34:37.638Z,8.88
2022-07-27T14:37:49.304Z,6.28
2022-07-27T14:41:01.940Z,6.93
2022-07-27T14:44:14.185Z,6.23
2022-07-27T14:47:28.052Z,6.08
2022-07-27T14:50:39.818Z,4.65
2022-07-27T14:53:51.832Z,4.75
2022-07-27T14:57:06.410Z,4.80
2022-07-27T15:00:22.103Z,4.33
2022-07-27T15:03:33.768Z,4.13
2022-07-27T15:06:57.316Z,5.60
2022-07-27T15:19:39.307Z,9.05
2022-07-27T15:31:26.245Z,5.78
2022-07-27T15:43:40.332Z,5.55
2022-07-27T16:23:01.872Z,6.90
2022-07-27T16:29:21.321Z,9.35
2022-07-27T16:35:41.062Z,14.45
2022-07-27T16:38:57.210Z,7.00
2022-07-27T16:42:12.563Z,6.80
2022-07-27T16:45:24.148Z,5.73
2022-07-27T16:48:41.801Z,8.33
2022-07-27T16:51:57.129Z,13.50
2022-07-27T16:55:13.073Z,10.90
2022-07-27T16:58:25.724Z,8.53
2022-07-27T17:01:37.681Z,5.80
2022-07-27T17:04:49.563Z,4.83
2022-07-27T17:08:01.311Z,5.88
2022-07-27T17:11:14.357Z,7.88
2022-07-27T17:14:26.410Z,6.80
2022-07-27T17:17:38.741Z,5.15
2022-07-27T17:20:50.566Z,9.33
2022-07-27T17:24:04.598Z,8.50
2022-07-27T17:27:16.558Z,29.63
2022-07-27T17:30:28.465Z,13.00
2022-07-27T17:33:40.777Z,7.83
2022-07-27T17:36:53.374Z,5.55
2022-07-27T17:40:05.014Z,6.78
2022-07-27T17:43:17.226Z,6.75
2022-07-27T17:46:32.351Z,7.30
2022-07-27T17:49:46.006Z,6.63
2022-07-27T17:52:59.513Z,14.50
2022-07-27T17:59:40.093Z,7.08
2022-07-27T18:02:52.509Z,7.65
2022-07-27T18:06:07.007Z,10.05
2022-07-27T18:09:19.204Z,13.00
2022-07-27T18:12:35.731Z,7.65
2022-07-27T18:15:58.110Z,7.23
2022-07-27T18:19:14.454Z,13.13
2022-07-27T18:22:33.096Z,9.75
2022-07-27T18:25:45.000Z,7.50
2022-07-27T18:32:04.188Z,11.08
2022-07-27T18:35:18.381Z,3.50
2022-07-27T19:21:04.787Z,4.25
2022-07-27T19:31:24.941Z,11.28
2022-07-27T19:34:36.990Z,9.68
2022-07-27T20:25:20.997Z,3.90
2022-07-27T21:56:50.580Z,2.23
2022-07-27T22:06:08.581Z,2.70
2022-07-27T23:09:05.613Z,2.20
2022-07-27T23:18:19.578Z,2.50
2022-07-27T23:21:31.343Z,2.33
2022-07-27T23:24:44.355Z,2.13
2022-07-27T23:27:57.106Z,2.28
2022-07-27T23:31:08.945Z,2.20
2022-07-27T23:34:20.961Z,2.30
2022-07-27T23:37:33.192Z,2.13
2022-07-27T23:40:44.969Z,2.03
2022-07-27T23:43:57.042Z,1.68
2022-07-27T23:47:08.994Z,1.60
2022-07-27T23:50:22.972Z,1.85
2022-07-27T23:53:34.773Z,2.13
2022-07-27T23:56:46.431Z,5.88
2022-07-27T23:59:58.323Z,2.90
